Time;durP1;ratioP1;P1;durP2;ratioP2;P2;SDS_P1;SDS_P2;PMS_P1;PMS_P2;Temp;Humidity;BMP_temperature;BMP_pressure;BME280_temperature;BME280_humidity;BME280_pressure;Samples;Min_cycle;Max_cycle;Signal;HPM_P1;HPM_P2
2022/10/13 00:01:47;;;;;;;;;;;;;;;5.66;81.83;101538.84;85910;1295;97393;-57
2022/10/13 00:03:54;;;;;;;;;;;;;;;5.68;81.79;101539.93;85909;1294;90572;-58
2022/10/13 00:06:05;;;;;;;;;;;;;;;5.68;81.71;101535.35;85906;1294;95314;-58
2022/10/13 00:08:12;;;;;;;;;;;;;;;5.68;81.60;101535.70;85900;1294;80759;-57
2022/10/13 00:10:22;;;;;;;;;;;;;;;5.66;81.75;101537.11;85948;1298;81164;-55
2022/10/13 00:12:34;;;;;;;;;;;;;;;5.63;81.72;101534.73;85896;1293;99500;-53
2022/10/13 00:14:41;;;;;;;;;;;;;;;5.58;81.75;101532.73;85935;1293;88958;-53
2022/10/13 00:16:48;;;;;;;;;;;;;;;5.56;81.75;101529.37;85909;1300;94165;-57
2022/10/13 00:18:56;;;;;;;;;;;;;;;5.51;81.74;101531.92;85920;1294;79655;-58
2022/10/13 00:21:09;;;;;;;;;;;;;;;5.48;81.66;101531.52;85942;1294;82313;-54
2022/10/13 00:23:17;;;;;;;;;;;;;;;5.45;81.66;101530.71;85897;1300;97750;-54
2022/10/13 00:25:24;;;;;;;;;;;;;;;5.42;81.65;101526.50;85906;1293;86488;-56
2022/10/13 00:27:31;;;;;;;;;;;;;;;5.37;81.60;101522.77;85825;1294;93537;-58
2022/10/13 00:29:38;;;;;;;;;;;;;;;5.32;81.72;101524.95;85879;1295;77809;-57
2022/10/13 00:32:29;;;;;;;;;;;;;;;5.28;81.68;101527.30;85895;1294;81072;-57
2022/10/13 00:34:36;;;;;;;;;;;;;;;5.18;81.76;101526.88;85789;1287;99438;-56
2022/10/13 00:36:43;;;;;;;;;;;;;;;5.10;81.68;101525.73;85867;1300;88052;-56
2022/10/13 00:38:50;;;;;;;;;;;;;;;5.05;81.64;101524.55;85831;1296;94573;-57
2022/10/13 00:40:57;;;;;;;;;;;;;;;5.02;81.69;101523.60;85889;1294;78609;-54
2022/10/13 00:43:07;;;;;;;;;;;;;;;4.94;81.79;101519.79;86039;1276;80579;-54
2022/10/13 00:49:11;;;;;;;;;;;;;;;4.77;81.80;101519.79;86189;1285;86301;-55
2022/10/13 00:51:22;;;;;;;;;;;;;;;4.72;81.80;101521.40;86101;1291;94365;-56
2022/10/13 00:53:37;;;;;;;;;;;;;;;4.68;81.84;101520.48;86099;1291;78423;-57
2022/10/13 00:55:46;;;;;;;;;;;;;;;4.63;81.91;101515.20;86079;1298;82440;-56
2022/10/13 00:57:54;;;;;;;;;;;;;;;4.59;81.98;101514.83;86113;1291;97893;-57
2022/10/13 01:03:51;;;;;;;;;;;;;;;4.44;82.28;101510.16;86211;1278;92911;-55
2022/10/13 01:09:41;;;;;;;;;;;;;;;4.40;82.31;101505.66;86164;1289;80197;-58
2022/10/13 01:12:01;;;;;;;;;;;;;;;4.38;82.52;101502.84;86025;1290;98264;-54
2022/10/13 01:14:18;;;;;;;;;;;;;;;4.38;82.50;101499.74;86028;1296;89140;-55
2022/10/13 01:24:36;;;;;;;;;;;;;;;4.34;82.75;101499.38;86217;1270;79961;-55
2022/10/13 01:27:13;;;;;;;;;;;;;;;4.32;82.61;101495.28;86113;1291;98814;-55
2022/10/13 01:29:57;;;;;;;;;;;;;;;4.33;82.58;101498.71;85873;1297;87042;-56
2022/10/13 01:32:40;;;;;;;;;;;;;;;4.31;82.52;101499.65;86164;1298;95766;-55
2022/10/13 01:34:52;;;;;;;;;;;;;;;4.28;82.44;101498.41;85898;1300;82184;-54
2022/10/13 01:37:03;;;;;;;;;;;;;;;4.28;82.51;101498.66;85898;1297;81178;-57
2022/10/13 01:39:15;;;;;;;;;;;;;;;4.22;82.61;101494.45;85865;1294;97860;-57
2022/10/13 01:41:29;;;;;;;;;;;;;;;4.21;82.69;101497.39;85908;1301;89351;-57
2022/10/13 01:43:39;;;;;;;;;;;;;;;4.19;82.72;101494.52;85917;1294;94761;-57
2022/10/13 01:45:51;;;;;;;;;;;;;;;4.21;82.62;101497.23;85932;1293;79971;-58
2022/10/13 01:48:00;;;;;;;;;;;;;;;4.22;82.34;101493.94;85923;1293;82639;-55
2022/10/13 01:50:10;;;;;;;;;;;;;;;4.23;82.62;101491.73;85885;1294;98711;-56
2022/10/13 01:52:20;;;;;;;;;;;;;;;4.22;82.62;101491.81;85664;1294;337421;-55
2022/10/13 01:54:30;;;;;;;;;;;;;;;4.17;82.62;101488.98;85838;1294;92393;-55
2022/10/13 01:56:37;;;;;;;;;;;;;;;4.14;82.61;101481.89;85847;1293;81411;-54
2022/10/13 01:58:45;;;;;;;;;;;;;;;4.12;82.62;101481.52;85873;1293;81800;-55
2022/10/13 02:01:03;;;;;;;;;;;;;;;4.10;82.69;101488.47;85869;1293;96595;-56
2022/10/13 02:03:41;;;;;;;;;;;;;;;4.08;82.72;101486.87;85871;1293;89243;-57
2022/10/13 02:05:52;;;;;;;;;;;;;;;4.04;82.86;101484.67;85819;1296;94001;-57
2022/10/13 02:08:05;;;;;;;;;;;;;;;4.01;82.74;101483.25;85809;1297;80663;-55
2022/10/13 02:10:18;;;;;;;;;;;;;;;4.00;82.68;101480.01;85837;1297;80490;-54
2022/10/13 02:12:28;;;;;;;;;;;;;;;3.97;82.70;101479.49;85828;1297;98975;-52
2022/10/13 02:14:38;;;;;;;;;;;;;;;3.95;82.52;101479.65;85835;1295;88684;-57
2022/10/13 02:16:50;;;;;;;;;;;;;;;3.93;82.55;101476.45;85807;1299;94401;-56
2022/10/13 02:19:02;;;;;;;;;;;;;;;3.89;82.60;101474.11;85828;1294;78933;-58
2022/10/13 02:21:10;;;;;;;;;;;;;;;3.83;82.70;101473.36;85856;1296;81352;-56
2022/10/13 02:23:19;;;;;;;;;;;;;;;3.77;82.70;101466.50;85913;1295;99557;-55
2022/10/13 02:29:22;;;;;;;;;;;;;;;3.65;82.73;101473.20;86027;1280;95406;-55
2022/10/13 02:31:29;;;;;;;;;;;;;;;3.60;82.61;101469.30;86139;1297;79243;-50
2022/10/13 02:33:37;;;;;;;;;;;;;;;3.52;82.81;101470.80;86147;1297;82483;-55
2022/10/13 02:35:44;;;;;;;;;;;;;;;3.45;82.77;101468.13;86148;1297;98452;-55
2022/10/13 02:37:53;;;;;;;;;;;;;;;3.42;82.78;101470.83;86137;1291;89099;-56
2022/10/13 02:40:00;;;;;;;;;;;;;;;3.38;82.71;101475.94;85988;1294;95772;-56
2022/10/13 02:42:10;;;;;;;;;;;;;;;3.34;82.84;101473.95;86114;1296;79247;-55
2022/10/13 02:44:17;;;;;;;;;;;;;;;3.30;82.84;101474.48;86115;1291;82342;-58
2022/10/13 02:46:24;;;;;;;;;;;;;;;3.25;82.95;101471.60;86119;1295;96822;-57
2022/10/13 02:48:31;;;;;;;;;;;;;;;3.20;83.09;101470.05;86129;1291;89030;-57
2022/10/13 02:50:39;;;;;;;;;;;;;;;3.17;83.10;101475.81;86013;1294;97339;-55
2022/10/13 02:52:47;;;;;;;;;;;;;;;3.14;83.28;101471.05;86127;1291;78827;-55
2022/10/13 02:54:53;;;;;;;;;;;;;;;3.13;83.27;101471.50;86152;1291;80192;-55
2022/10/13 02:57:01;;;;;;;;;;;;;;;3.12;83.26;101472.63;86127;1284;96594;-55
2022/10/13 02:59:08;;;;;;;;;;;;;;;3.13;83.41;101471.69;86145;1298;86818;-56
2022/10/13 03:04:49;;;;;;;;;;;;;;;3.15;83.48;101470.30;86012;1265;79115;-50
2022/10/13 03:06:57;;;;;;;;;;;;;;;3.14;83.65;101469.10;86104;1298;82463;-56
2022/10/13 03:09:06;;;;;;;;;;;;;;;3.16;83.64;101467.18;86079;1297;98094;-56
2022/10/13 03:11:13;;;;;;;;;;;;;;;3.18;83.64;101468.09;86101;1290;89001;-57
2022/10/13 03:13:21;;;;;;;;;;;;;;;3.20;83.56;101468.29;86097;1292;92900;-56
2022/10/13 03:15:27;;;;;;;;;;;;;;;3.21;83.68;101464.98;86098;1298;81028;-55
2022/10/13 03:17:35;;;;;;;;;;;;;;;3.22;83.59;101458.73;86095;1298;83129;-55
2022/10/13 03:19:48;;;;;;;;;;;;;;;3.22;83.65;101457.08;86087;1292;99376;-56
2022/10/13 03:21:55;;;;;;;;;;;;;;;3.22;83.62;101457.97;85836;1300;86793;-55
2022/10/13 03:24:04;;;;;;;;;;;;;;;3.22;83.61;101454.98;85779;1296;94717;-57
2022/10/13 03:26:11;;;;;;;;;;;;;;;3.20;83.57;101453.14;85761;1300;77451;-58
2022/10/13 03:28:18;;;;;;;;;;;;;;;3.20;83.65;101447.27;85781;1296;83398;-57
2022/10/13 03:30:25;;;;;;;;;;;;;;;3.20;83.59;101448.14;85776;1296;97828;-58
2022/10/13 03:32:35;;;;;;;;;;;;;;;3.20;83.80;101452.08;85810;1295;89580;-57
2022/10/13 03:34:43;;;;;;;;;;;;;;;3.20;83.65;101450.33;85802;1296;95051;-53
2022/10/13 03:36:50;;;;;;;;;;;;;;;3.20;83.65;101451.17;85754;1300;80882;-53
2022/10/13 03:38:57;;;;;;;;;;;;;;;3.20;83.51;101448.34;85763;1301;81847;-56
2022/10/13 03:41:09;;;;;;;;;;;;;;;3.20;83.63;101444.96;85780;1296;98793;-55
2022/10/13 03:43:16;;;;;;;;;;;;;;;3.21;83.59;101448.13;85751;1297;89481;-53
2022/10/13 03:45:24;;;;;;;;;;;;;;;3.20;83.64;101448.91;85777;1298;95379;-57
2022/10/13 03:47:32;;;;;;;;;;;;;;;3.17;83.69;101447.18;85748;1301;81767;-58
2022/10/13 03:49:40;;;;;;;;;;;;;;;3.17;83.65;101448.04;85816;1301;81822;-58
2022/10/13 03:51:49;;;;;;;;;;;;;;;3.18;83.58;101449.79;85781;1293;97050;-57
2022/10/13 03:53:55;;;;;;;;;;;;;;;3.17;83.43;101449.48;85818;1297;89112;-55
2022/10/13 03:56:06;;;;;;;;;;;;;;;3.15;83.40;101450.89;85831;1298;93473;-55
2022/10/13 03:58:15;;;;;;;;;;;;;;;3.14;83.49;101454.12;85819;1296;79741;-61
2022/10/13 04:00:22;;;;;;;;;;;;;;;3.13;83.41;101458.36;85838;1301;80568;-57
2022/10/13 04:02:29;;;;;;;;;;;;;;;3.12;83.52;101454.80;85852;1296;96916;-58
2022/10/13 04:04:37;;;;;;;;;;;;;;;3.10;83.40;101454.61;85823;1300;87617;-57
2022/10/13 04:06:47;;;;;;;;;;;;;;;3.08;83.38;101457.09;85766;1303;95130;-55
2022/10/13 04:08:55;;;;;;;;;;;;;;;3.01;83.29;101457.81;85786;1304;79944;-55
2022/10/13 04:11:03;;;;;;;;;;;;;;;2.95;83.51;101453.27;85775;1296;82056;-54
2022/10/13 04:13:10;;;;;;;;;;;;;;;2.90;83.49;101455.05;85779;1302;96507;-57
2022/10/13 04:15:47;;;;;;;;;;;;;;;2.82;83.53;101454.45;85771;1302;88350;-53
2022/10/13 04:17:54;;;;;;;;;;;;;;;2.74;83.49;101456.61;85920;1285;93216;-52
2022/10/13 04:20:01;;;;;;;;;;;;;;;2.70;83.54;101456.20;85875;1295;79146;-54
2022/10/13 04:22:09;;;;;;;;;;;;;;;2.65;83.59;101457.45;85902;1299;81478;-57
2022/10/13 04:24:17;;;;;;;;;;;;;;;2.60;83.69;101459.61;85907;1300;99077;-57
2022/10/13 04:26:25;;;;;;;;;;;;;;;2.55;83.71;101461.77;86297;1278;86489;-58
2022/10/13 04:28:34;;;;;;;;;;;;;;;2.53;83.65;101462.27;87457;1290;94995;-58
2022/10/13 04:30:55;;;;;;;;;;;;;;;2.49;83.65;101462.40;87491;1290;79988;-57
2022/10/13 04:33:02;;;;;;;;;;;;;;;2.45;83.66;101462.38;87378;1286;81896;-57
2022/10/13 04:35:09;;;;;;;;;;;;;;;2.40;83.82;101461.27;87425;1294;97693;-54
2022/10/13 04:37:17;;;;;;;;;;;;;;;2.38;83.86;101463.39;87463;1278;86652;-56
2022/10/13 04:39:24;;;;;;;;;;;;;;;2.35;83.91;101462.73;87400;1291;93255;-54
2022/10/13 04:41:31;;;;;;;;;;;;;;;2.32;83.84;101465.40;87426;1290;81017;-58
2022/10/13 04:43:38;;;;;;;;;;;;;;;2.31;83.90;101465.48;87428;1284;82832;-57
2022/10/13 04:45:45;;;;;;;;;;;;;;;2.32;84.10;101461.01;87368;1293;97850;-57
2022/10/13 04:47:52;;;;;;;;;;;;;;;2.35;84.01;101462.75;87474;1292;86221;-57
2022/10/13 04:49:59;;;;;;;;;;;;;;;2.38;84.15;101463.77;87434;1290;93759;-57
2022/10/13 04:52:06;;;;;;;;;;;;;;;2.40;84.24;101463.05;87414;1300;81339;-57
2022/10/13 04:54:13;;;;;;;;;;;;;;;2.44;84.30;101466.31;87412;1296;81078;-57
2022/10/13 04:56:20;;;;;;;;;;;;;;;2.49;84.29;101468.64;87471;1294;97542;-54
2022/10/13 04:58:27;;;;;;;;;;;;;;;2.57;84.32;101471.06;87405;1301;87970;-54
2022/10/13 05:00:35;;;;;;;;;;;;;;;2.63;84.15;101470.23;87292;1295;94704;-54
2022/10/13 05:02:41;;;;;;;;;;;;;;;2.69;84.31;101471.23;87402;1293;81025;-54
2022/10/13 05:04:48;;;;;;;;;;;;;;;2.75;84.20;101469.38;87379;1284;81895;-54
2022/10/13 05:06:55;;;;;;;;;;;;;;;2.80;84.28;101469.70;87384;1294;97857;-57
2022/10/13 05:09:03;;;;;;;;;;;;;;;2.88;84.16;101466.23;87394;1292;88500;-57
2022/10/13 05:11:11;;;;;;;;;;;;;;;2.92;84.14;101464.30;87412;1292;95696;-56
2022/10/13 05:13:18;;;;;;;;;;;;;;;2.92;84.17;101461.48;87388;1293;78978;-56
2022/10/13 05:19:07;;;;;;;;;;;;;;;2.92;84.11;101460.26;87455;1277;97339;-58
2022/10/13 05:21:15;;;;;;;;;;;;;;;2.90;84.05;101461.61;87531;1281;89118;-58
2022/10/13 05:23:22;;;;;;;;;;;;;;;2.89;84.01;101462.43;87545;1289;94356;-55
2022/10/13 05:25:29;;;;;;;;;;;;;;;2.88;84.10;101459.48;87550;1290;80152;-56
2022/10/13 05:27:36;;;;;;;;;;;;;;;2.90;84.13;101458.45;87547;1289;81707;-56
2022/10/13 05:29:43;;;;;;;;;;;;;;;2.90;84.16;101455.77;87556;1289;99433;-57
2022/10/13 05:31:50;;;;;;;;;;;;;;;2.91;84.16;101455.89;87546;1297;88487;-57
2022/10/13 05:33:57;;;;;;;;;;;;;;;2.93;84.20;101455.02;87507;1290;94114;-57
2022/10/13 05:36:08;;;;;;;;;;;;;;;2.95;84.07;101455.96;87549;1291;79983;-57
2022/10/13 05:38:15;;;;;;;;;;;;;;;2.99;84.22;101459.90;87560;1290;81949;-57
2022/10/13 05:40:22;;;;;;;;;;;;;;;3.04;84.22;101463.13;87369;1286;101015;-56
2022/10/13 05:42:30;;;;;;;;;;;;;;;3.12;84.24;101464.27;87523;1295;89102;-56
2022/10/13 05:44:37;;;;;;;;;;;;;;;3.28;84.28;101465.52;87529;1291;94916;-56
2022/10/13 05:46:44;;;;;;;;;;;;;;;3.41;84.16;101466.61;87380;1293;78033;-54
2022/10/13 05:48:51;;;;;;;;;;;;;;;3.47;84.19;101464.61;87548;1289;82287;-56
2022/10/13 05:51:00;;;;;;;;;;;;;;;3.51;84.33;101466.39;87544;1291;98890;-56
2022/10/13 05:53:07;;;;;;;;;;;;;;;3.57;84.38;101468.61;87572;1290;86345;-54
2022/10/13 05:55:16;;;;;;;;;;;;;;;3.66;84.34;101466.86;87550;1290;93352;-56
2022/10/13 05:57:26;;;;;;;;;;;;;;;3.84;84.73;101462.94;87544;1291;79821;-58
2022/10/13 05:59:35;;;;;;;;;;;;;;;4.07;84.99;101460.52;87561;1289;82439;-58
2022/10/13 06:01:43;;;;;;;;;;;;;;;4.37;85.54;101463.66;87579;1291;97508;-56
2022/10/13 06:03:52;;;;;;;;;;;;;;;4.70;85.51;101465.53;87530;1291;88395;-58
2022/10/13 06:05:59;;;;;;;;;;;;;;;4.89;84.82;101465.05;87542;1291;93221;-58
2022/10/13 06:08:06;;;;;;;;;;;;;;;4.98;85.01;101466.20;87530;1291;78259;-58
2022/10/13 06:10:14;;;;;;;;;;;;;;;5.08;84.90;101468.83;87536;1296;80625;-58
2022/10/13 06:12:20;;;;;;;;;;;;;;;5.16;85.03;101474.15;87540;1289;97544;-55
2022/10/13 06:14:27;;;;;;;;;;;;;;;5.27;85.24;101476.44;87507;1291;87638;-54
2022/10/13 06:16:36;;;;;;;;;;;;;;;5.43;85.22;101474.58;87537;1284;94348;-54
2022/10/13 06:18:43;;;;;;;;;;;;;;;5.60;85.44;101473.32;87521;1290;80661;-55
2022/10/13 06:20:50;;;;;;;;;;;;;;;5.75;85.46;101468.24;87547;1289;82486;-56
2022/10/13 06:22:57;;;;;;;;;;;;;;;5.91;85.46;101473.07;87517;1291;96054;-55
2022/10/13 06:25:06;;;;;;;;;;;;;;;6.11;85.53;101471.77;87559;1285;86215;-56
2022/10/13 06:27:13;;;;;;;;;;;;;;;6.35;85.87;101468.33;87517;1293;95150;-57
2022/10/13 06:29:20;;;;;;;;;;;;;;;6.58;85.82;101471.79;87506;1291;79892;-56
2022/10/13 06:31:27;;;;;;;;;;;;;;;6.77;85.61;101469.85;87548;1294;81156;-56
2022/10/13 06:33:34;;;;;;;;;;;;;;;6.95;85.84;101471.77;87535;1291;96096;-56
2022/10/13 06:35:41;;;;;;;;;;;;;;;7.15;85.77;101469.77;87506;1292;88390;-54
2022/10/13 06:37:49;;;;;;;;;;;;;;;7.32;85.56;101468.16;87521;1296;93632;-57
2022/10/13 06:39:56;;;;;;;;;;;;;;;7.50;85.47;101465.40;87517;1297;81720;-58
2022/10/13 06:42:03;;;;;;;;;;;;;;;7.66;85.56;101469.91;87556;1283;82445;-57
2022/10/13 06:44:11;;;;;;;;;;;;;;;7.84;85.27;101463.23;87506;1289;98247;-58
2022/10/13 06:46:18;;;;;;;;;;;;;;;8.00;85.26;101459.67;87575;1291;86758;-57
2022/10/13 06:48:26;;;;;;;;;;;;;;;8.13;85.10;101461.14;87543;1291;92560;-56
2022/10/13 06:50:33;;;;;;;;;;;;;;;8.25;85.01;101457.98;87538;1287;79544;-56
2022/10/13 06:52:42;;;;;;;;;;;;;;;8.37;84.87;101458.96;87565;1291;82528;-54
2022/10/13 06:54:49;;;;;;;;;;;;;;;8.46;84.75;101456.63;87558;1290;97411;-54
2022/10/13 06:56:56;;;;;;;;;;;;;;;8.55;84.60;101456.26;87416;1292;87865;-57
2022/10/13 06:59:03;;;;;;;;;;;;;;;8.66;84.49;101457.66;87510;1289;94886;-57
2022/10/13 07:01:14;;;;;;;;;;;;;;;8.75;84.41;101460.93;87537;1292;79939;-58
2022/10/13 07:03:21;;;;;;;;;;;;;;;8.85;84.33;101460.64;87550;1290;82495;-56
2022/10/13 07:05:28;;;;;;;;;;;;;;;8.95;84.13;101457.94;87568;1284;98910;-54
2022/10/13 07:07:35;;;;;;;;;;;;;;;9.05;84.01;101459.52;87582;1291;87880;-57
2022/10/13 07:09:42;;;;;;;;;;;;;;;9.15;83.57;101454.23;87477;1290;95563;-57
2022/10/13 07:11:49;;;;;;;;;;;;;;;9.26;83.50;101456.86;87541;1296;80986;-54
2022/10/13 07:13:57;;;;;;;;;;;;;;;9.53;83.69;101453.57;87488;1296;82024;-54
2022/10/13 07:16:06;;;;;;;;;;;;;;;10.05;83.73;101448.14;87552;1290;97164;-54
2022/10/13 07:18:12;;;;;;;;;;;;;;;10.43;82.63;101445.47;87590;1290;88247;-54
2022/10/13 07:20:20;;;;;;;;;;;;;;;10.54;81.67;101442.65;87504;1297;95843;-54
2022/10/13 07:22:28;;;;;;;;;;;;;;;10.71;81.59;101439.08;87535;1289;79674;-57
2022/10/13 07:24:35;;;;;;;;;;;;;;;11.22;81.47;101435.66;87529;1290;79708;-58
2022/10/13 07:26:42;;;;;;;;;;;;;;;12.01;80.89;101424.81;87566;1289;97327;-56
2022/10/13 07:28:50;;;;;;;;;;;;;;;12.85;80.27;101426.73;87522;1284;89165;-54
2022/10/13 07:30:57;;;;;;;;;;;;;;;13.63;79.32;101423.13;87513;1289;94293;-54
2022/10/13 07:33:03;;;;;;;;;;;;;;;14.50;78.54;101421.48;87530;1284;80384;-55
2022/10/13 07:35:11;;;;;;;;;;;;;;;15.65;77.54;101422.14;87549;1289;82276;-55
2022/10/13 07:37:19;;;;;;;;;;;;;;;17.07;75.73;101415.61;87490;1297;97933;-55
2022/10/13 07:39:26;;;;;;;;;;;;;;;17.99;73.12;101414.03;87472;1292;89131;-55
2022/10/13 07:41:33;;;;;;;;;;;;;;;18.80;70.71;101412.06;87485;1290;94496;-55
2022/10/13 07:43:42;;;;;;;;;;;;;;;19.36;69.34;101406.80;87473;1296;80266;-54
2022/10/13 07:45:49;;;;;;;;;;;;;;;20.15;68.09;101400.33;87495;1291;81106;-54
2022/10/13 07:47:57;;;;;;;;;;;;;;;20.86;66.77;101397.34;87495;1291;98769;-54
2022/10/13 07:50:04;;;;;;;;;;;;;;;21.54;65.66;101394.83;87485;1292;86582;-54
2022/10/13 07:52:11;;;;;;;;;;;;;;;21.96;62.41;101392.89;87478;1291;94112;-57
2022/10/13 07:54:19;;;;;;;;;;;;;;;22.54;61.40;101393.31;87475;1295;80801;-57
2022/10/13 07:56:26;;;;;;;;;;;;;;;23.06;60.89;101392.77;87478;1297;81705;-57
2022/10/13 07:58:33;;;;;;;;;;;;;;;23.21;59.97;101395.25;87486;1304;98149;-54
2022/10/13 08:00:40;;;;;;;;;;;;;;;23.61;58.85;101399.40;87478;1297;87655;-55
2022/10/13 08:02:49;;;;;;;;;;;;;;;23.86;56.49;101394.67;87469;1291;95865;-55
2022/10/13 08:04:56;;;;;;;;;;;;;;;23.97;55.81;101392.46;87457;1292;79507;-55
2022/10/13 08:07:04;;;;;;;;;;;;;;;23.66;54.91;101394.08;87516;1289;82949;-55
2022/10/13 08:09:11;;;;;;;;;;;;;;;22.61;53.41;101389.05;87477;1292;97152;-55
2022/10/13 08:11:18;;;;;;;;;;;;;;;21.71;51.66;101386.63;87471;1297;88954;-55
2022/10/13 08:13:25;;;;;;;;;;;;;;;21.07;52.98;101384.87;87450;1292;94546;-58
2022/10/13 08:15:32;;;;;;;;;;;;;;;20.46;53.19;101383.10;87487;1297;79195;-58
2022/10/13 08:17:39;;;;;;;;;;;;;;;19.83;52.88;101385.98;87499;1292;81868;-58
2022/10/13 08:19:46;;;;;;;;;;;;;;;19.23;52.20;101389.30;87510;1290;97672;-58
2022/10/13 08:21:53;;;;;;;;;;;;;;;19.00;52.59;101388.52;87478;1295;88523;-54
2022/10/13 08:24:00;;;;;;;;;;;;;;;18.63;53.43;101384.64;87487;1297;93937;-54
2022/10/13 08:26:12;;;;;;;;;;;;;;;18.26;53.08;101387.20;87462;1283;80560;-54
2022/10/13 08:28:22;;;;;;;;;;;;;;;17.76;53.72;101388.50;87498;1290;81778;-54
2022/10/13 08:30:29;;;;;;;;;;;;;;;17.45;54.33;101388.36;87512;1289;96967;-54
2022/10/13 08:32:36;;;;;;;;;;;;;;;17.29;54.75;101387.52;87487;1291;89209;-54
2022/10/13 08:34:42;;;;;;;;;;;;;;;17.29;54.89;101383.56;87451;1293;95383;-54
2022/10/13 08:36:51;;;;;;;;;;;;;;;17.09;54.98;101383.84;87497;1289;79240;-54
2022/10/13 08:38:58;;;;;;;;;;;;;;;16.88;54.88;101380.70;87499;1292;83198;-55
2022/10/13 08:41:13;;;;;;;;;;;;;;;16.74;55.44;101380.23;87455;1292;95335;-55
2022/10/13 08:43:22;;;;;;;;;;;;;;;16.66;55.68;101382.44;87510;1292;87963;-55
2022/10/13 08:45:30;;;;;;;;;;;;;;;16.68;55.85;101376.64;87482;1289;94213;-55
2022/10/13 08:47:42;;;;;;;;;;;;;;;16.96;55.60;101379.98;87474;1296;80259;-58
2022/10/13 08:49:49;;;;;;;;;;;;;;;17.18;55.40;101378.90;87503;1290;82366;-58
2022/10/13 08:51:57;;;;;;;;;;;;;;;17.19;54.17;101377.30;87502;1291;98952;-54
2022/10/13 08:54:06;;;;;;;;;;;;;;;17.12;54.62;101375.30;87478;1290;88190;-54
2022/10/13 08:56:18;;;;;;;;;;;;;;;17.14;53.69;101377.20;87465;1290;95362;-54
2022/10/13 08:58:27;;;;;;;;;;;;;;;17.17;52.44;101379.61;87474;1284;80372;-54
2022/10/13 09:00:34;;;;;;;;;;;;;;;17.14;53.36;101376.12;87482;1292;82108;-54
2022/10/13 09:02:43;;;;;;;;;;;;;;;17.50;54.22;101374.17;87506;1292;99481;-57
2022/10/13 09:04:52;;;;;;;;;;;;;;;17.98;53.50;101371.29;87455;1289;89144;-57
2022/10/13 09:07:04;;;;;;;;;;;;;;;18.51;53.62;101368.36;87473;1291;94819;-55
2022/10/13 09:09:12;;;;;;;;;;;;;;;19.17;53.60;101365.73;87499;1292;77534;-54
2022/10/13 09:11:20;;;;;;;;;;;;;;;19.99;53.26;101360.08;87479;1289;80966;-55
2022/10/13 09:13:27;;;;;;;;;;;;;;;20.20;49.15;101357.32;87541;1289;99476;-57
2022/10/13 09:15:44;;;;;;;;;;;;;;;20.29;50.83;101358.88;87484;1292;87075;-57
2022/10/13 09:18:08;;;;;;;;;;;;;;;20.82;50.83;101360.16;87465;1299;93258;-55
2022/10/13 09:20:22;;;;;;;;;;;;;;;21.57;50.04;101349.42;87471;1290;80035;-55
2022/10/13 09:22:30;;;;;;;;;;;;;;;22.07;49.90;101352.05;87509;1290;82258;-55
2022/10/13 09:24:37;;;;;;;;;;;;;;;22.51;48.96;101348.25;87512;1291;98369;-55
2022/10/13 09:26:45;;;;;;;;;;;;;;;22.85;47.97;101349.67;87482;1289;87581;-57
2022/10/13 09:28:53;;;;;;;;;;;;;;;22.95;47.56;101347.52;87478;1292;94774;-58
2022/10/13 09:31:05;;;;;;;;;;;;;;;23.17;47.06;101346.00;87401;1292;81176;-56
2022/10/13 09:33:25;;;;;;;;;;;;;;;23.31;46.01;101347.34;87497;1289;82252;-58
2022/10/13 09:35:36;;;;;;;;;;;;;;;23.26;46.53;101350.14;87520;1289;97668;-58
2022/10/13 09:37:43;;;;;;;;;;;;;;;23.35;46.21;101351.05;87454;1292;87878;-58
2022/10/13 09:40:02;;;;;;;;;;;;;;;23.39;44.91;101346.85;87461;1291;93653;-57
2022/10/13 09:42:25;;;;;;;;;;;;;;;22.86;45.15;101343.96;87477;1289;79768;-57
2022/10/13 09:44:32;;;;;;;;;;;;;;;22.69;45.19;101339.61;87482;1293;81108;-58
2022/10/13 09:46:46;;;;;;;;;;;;;;;22.39;44.80;101336.92;87483;1283;98676;-58
2022/10/13 09:48:56;;;;;;;;;;;;;;;21.88;43.20;101331.36;87469;1291;88999;-55
2022/10/13 09:51:04;;;;;;;;;;;;;;;21.15;42.97;101330.66;87466;1297;95674;-55
2022/10/13 09:53:24;;;;;;;;;;;;;;;20.35;42.16;101331.80;87253;1297;306110;-57
2022/10/13 09:55:33;;;;;;;;;;;;;;;19.48;42.93;101335.23;87473;1297;81202;-58
2022/10/13 09:57:43;;;;;;;;;;;;;;;18.99;43.68;101333.67;87480;1296;96783;-57
2022/10/13 09:59:52;;;;;;;;;;;;;;;18.58;44.69;101334.23;87463;1286;88844;-57
2022/10/13 10:02:01;;;;;;;;;;;;;;;18.26;44.97;101334.31;87418;1284;95651;-54
2022/10/13 10:04:11;;;;;;;;;;;;;;;17.89;45.34;101327.07;87480;1293;78490;-54
2022/10/13 10:06:18;;;;;;;;;;;;;;;17.63;45.74;101316.45;87498;1290;82329;-54
2022/10/13 10:08:31;;;;;;;;;;;;;;;17.40;45.63;101317.38;87484;1294;98386;-57
2022/10/13 10:10:40;;;;;;;;;;;;;;;17.09;46.35;101320.41;87463;1292;88779;-56
2022/10/13 10:12:47;;;;;;;;;;;;;;;16.83;46.58;101318.66;87465;1291;94897;-54
2022/10/13 10:14:54;;;;;;;;;;;;;;;16.72;47.27;101315.48;87464;1292;80097;-55
2022/10/13 10:17:07;;;;;;;;;;;;;;;16.72;47.65;101305.96;87522;1291;82960;-56
2022/10/13 10:19:18;;;;;;;;;;;;;;;16.70;47.76;101303.31;87449;1291;98182;-58
2022/10/13 10:21:31;;;;;;;;;;;;;;;16.64;48.30;101299.19;87473;1290;89102;-58
2022/10/13 10:23:45;;;;;;;;;;;;;;;16.61;48.00;101294.77;87464;1289;93902;-55
2022/10/13 10:25:56;;;;;;;;;;;;;;;16.41;48.27;101287.48;87482;1291;79131;-55
2022/10/13 10:28:17;;;;;;;;;;;;;;;16.37;48.51;101285.45;87498;1291;81114;-58
2022/10/13 10:30:24;;;;;;;;;;;;;;;16.36;48.78;101278.02;87495;1291;98629;-59
2022/10/13 10:32:40;;;;;;;;;;;;;;;16.36;48.75;101275.21;87409;1289;87782;-55
2022/10/13 10:34:50;;;;;;;;;;;;;;;16.31;48.54;101275.54;87467;1291;95400;-55
2022/10/13 10:37:04;;;;;;;;;;;;;;;16.24;48.56;101280.62;87408;1286;81236;-57
2022/10/13 10:39:20;;;;;;;;;;;;;;;16.15;48.32;101275.98;87492;1284;82056;-57
2022/10/13 10:41:39;;;;;;;;;;;;;;;16.13;48.80;101275.84;87491;1283;99056;-57
2022/10/13 10:43:52;;;;;;;;;;;;;;;16.04;48.59;101273.04;87523;1299;88084;-57
2022/10/13 10:46:01;;;;;;;;;;;;;;;15.91;48.86;101268.92;87453;1289;93646;-57
2022/10/13 10:48:14;;;;;;;;;;;;;;;15.90;49.03;101265.58;87496;1291;79977;-55
2022/10/13 10:50:22;;;;;;;;;;;;;;;15.94;49.37;101267.56;87515;1290;82230;-55
2022/10/13 10:52:45;;;;;;;;;;;;;;;15.98;49.46;101260.83;87527;1289;97317;-57
2022/10/13 10:54:56;;;;;;;;;;;;;;;15.96;49.15;101261.45;87473;1291;86065;-58
2022/10/13 10:57:08;;;;;;;;;;;;;;;15.86;49.02;101258.72;87497;1291;93696;-55
2022/10/13 10:59:28;;;;;;;;;;;;;;;15.70;48.23;101256.67;87466;1291;79492;-55
2022/10/13 11:01:42;;;;;;;;;;;;;;;15.63;48.65;101254.04;87507;1290;82729;-55
2022/10/13 11:03:57;;;;;;;;;;;;;;;15.51;48.40;101256.69;87506;1291;97883;-58
2022/10/13 11:06:20;;;;;;;;;;;;;;;15.39;48.72;101254.20;87448;1293;88884;-55
2022/10/13 11:08:38;;;;;;;;;;;;;;;15.33;48.99;101247.33;87466;1291;92597;-58
2022/10/13 11:10:45;;;;;;;;;;;;;;;15.36;49.53;101243.70;87418;1286;78290;-58
2022/10/13 11:13:21;;;;;;;;;;;;;;;15.36;49.73;101240.05;87499;1290;82482;-58
2022/10/13 11:15:32;;;;;;;;;;;;;;;15.39;49.97;101233.08;87510;1282;99518;-58
2022/10/13 11:17:41;;;;;;;;;;;;;;;15.42;50.08;101230.58;87452;1291;87476;-58
2022/10/13 11:19:49;;;;;;;;;;;;;;;15.40;49.53;101234.64;87479;1290;95545;-58
2022/10/13 11:24:49;;;;;;;;;;;;;;;15.24;49.28;101228.40;83237;1339;598826;-56
2022/10/13 11:27:11;;;;;;;;;;;;;;;15.17;49.48;101228.04;85292;1307;79664;-56
2022/10/13 11:29:41;;;;;;;;;;;;;;;15.08;49.48;101226.34;85322;1302;82378;-56
2022/10/13 11:31:56;;;;;;;;;;;;;;;15.08;49.75;101224.00;85301;1303;97270;-58
2022/10/13 11:34:05;;;;;;;;;;;;;;;15.10;49.90;101220.33;85354;1310;87998;-57
2022/10/13 11:36:44;;;;;;;;;;;;;;;15.08;49.93;101218.22;85316;1302;95394;-56
2022/10/13 11:38:54;;;;;;;;;;;;;;;15.05;50.15;101219.50;85230;1307;354518;-58
2022/10/13 11:41:13;;;;;;;;;;;;;;;15.05;50.03;101214.71;85546;1307;82136;-56
2022/10/13 11:43:33;;;;;;;;;;;;;;;15.02;49.76;101210.34;85543;1307;96176;-55
2022/10/13 11:46:08;;;;;;;;;;;;;;;14.96;50.11;101202.39;85562;1307;88406;-56
2022/10/13 11:48:41;;;;;;;;;;;;;;;14.95;50.15;101202.92;85485;1307;94490;-53